Time;durP1;ratioP1;P1;durP2;ratioP2;P2;SDS_P1;SDS_P2;PMS_P1;PMS_P2;Temp;Humidity;BMP_temperature;BMP_pressure;BME280_temperature;BME280_humidity;BME280_pressure;Samples;Min_cycle;Max_cycle;Signal;HPM_P1;HPM_P2
2022/07/14 00:00:00;;;;;;;3.25;1.9;;;;;;;20.89;47.54102;95672.31;;;;
2022/07/14 00:01:01;;;;;;;3.25;1.9;;;;;;;20.89;47.54102;95672.31;;;;
2022/07/14 00:02:02;;;;;;;3.25;1.9;;;;;;;20.89;47.54102;95672.31;;;;
2022/07/14 00:03:03;;;;;;;3.25;1.9;;;;;;;20.89;47.54102;95672.31;;;;
2022/07/14 00:04:04;;;;;;;3.25;1.9;;;;;;;20.89;47.54102;95672.31;;;;
2022/07/14 00:05:06;;;;;;;3.25;1.9;;;;;;;20.89;47.54102;95672.31;;;;
2022/07/14 00:06:07;;;;;;;3.25;1.9;;;;;;;20.89;47.54102;95672.31;;;;
2022/07/14 00:07:07;;;;;;;3.25;1.9;;;;;;;20.89;47.54102;95672.31;;;;
2022/07/14 00:08:08;;;;;;;3.25;1.9;;;;;;;20.89;47.54102;95672.31;;;;
2022/07/14 00:09:08;;;;;;;3.25;1.9;;;;;;;20.89;47.54102;95672.31;;;;
2022/07/14 00:10:09;;;;;;;1.8;1.7;;;;;;;20.86;47.98145;95663.56;;;;
2022/07/14 00:11:10;;;;;;;1.8;1.7;;;;;;;20.86;47.98145;95663.56;;;;
2022/07/14 00:12:11;;;;;;;1.8;1.7;;;;;;;20.86;47.98145;95663.56;;;;
2022/07/14 00:13:11;;;;;;;1.8;1.7;;;;;;;20.86;47.98145;95663.56;;;;
2022/07/14 00:14:12;;;;;;;1.8;1.7;;;;;;;20.86;47.98145;95663.56;;;;
2022/07/14 00:15:13;;;;;;;1.8;1.7;;;;;;;20.86;47.98145;95663.56;;;;
2022/07/14 00:16:13;;;;;;;1.8;1.7;;;;;;;20.86;47.98145;95663.56;;;;
2022/07/14 00:17:14;;;;;;;1.8;1.7;;;;;;;20.86;47.98145;95663.56;;;;
2022/07/14 00:18:14;;;;;;;1.8;1.7;;;;;;;20.86;47.98145;95663.56;;;;
2022/07/14 00:19:15;;;;;;;1.8;1.7;;;;;;;20.86;47.98145;95663.56;;;;
2022/07/14 00:20:15;;;;;;;2.5;2.1;;;;;;;20.89;48.35156;95660.75;;;;
2022/07/14 00:21:16;;;;;;;2.5;2.1;;;;;;;20.89;48.35156;95660.75;;;;
2022/07/14 00:22:17;;;;;;;2.5;2.1;;;;;;;20.89;48.35156;95660.75;;;;
2022/07/14 00:23:17;;;;;;;2.5;2.1;;;;;;;20.89;48.35156;95660.75;;;;
2022/07/14 00:24:21;;;;;;;2.5;2.1;;;;;;;20.89;48.35156;95660.75;;;;
2022/07/14 00:25:22;;;;;;;2.5;2.1;;;;;;;20.89;48.35156;95660.75;;;;
2022/07/14 00:26:23;;;;;;;2.5;2.1;;;;;;;20.89;48.35156;95660.75;;;;
2022/07/14 00:27:23;;;;;;;2.5;2.1;;;;;;;20.89;48.35156;95660.75;;;;
2022/07/14 00:28:24;;;;;;;2.5;2.1;;;;;;;20.89;48.35156;95660.75;;;;
2022/07/14 00:29:24;;;;;;;2.5;2.1;;;;;;;20.89;48.35156;95660.75;;;;
2022/07/14 00:30:25;;;;;;;2.5;2.1;;;;;;;20.89;48.35156;95660.75;;;;
2022/07/14 00:31:25;;;;;;;2.15;1.9;;;;;;;20.82;48.72168;95647.16;;;;
2022/07/14 00:32:26;;;;;;;2.15;1.9;;;;;;;20.82;48.72168;95647.16;;;;
2022/07/14 00:33:26;;;;;;;2.15;1.9;;;;;;;20.82;48.72168;95647.16;;;;
2022/07/14 00:34:28;;;;;;;2.15;1.9;;;;;;;20.82;48.72168;95647.16;;;;
2022/07/14 00:35:29;;;;;;;2.15;1.9;;;;;;;20.82;48.72168;95647.16;;;;
2022/07/14 00:36:30;;;;;;;2.15;1.9;;;;;;;20.82;48.72168;95647.16;;;;
2022/07/14 00:37:30;;;;;;;2.15;1.9;;;;;;;20.82;48.72168;95647.16;;;;
2022/07/14 00:38:31;;;;;;;2.15;1.9;;;;;;;20.82;48.72168;95647.16;;;;
2022/07/14 00:39:54;;;;;;;2.15;1.9;;;;;;;20.82;48.72168;95647.16;;;;
2022/07/14 00:40:54;;;;;;;2.15;1.9;;;;;;;20.82;48.72168;95647.16;;;;
2022/07/14 00:41:55;;;;;;;2.1;1.9;;;;;;;20.78;49.20508;95630.35;;;;
2022/07/14 00:42:55;;;;;;;2.1;1.9;;;;;;;20.78;49.20508;95630.35;;;;
2022/07/14 00:43:56;;;;;;;2.1;1.9;;;;;;;20.78;49.20508;95630.35;;;;
2022/07/14 00:44:57;;;;;;;2.1;1.9;;;;;;;20.78;49.20508;95630.35;;;;
2022/07/14 00:45:57;;;;;;;2.1;1.9;;;;;;;20.78;49.20508;95630.35;;;;
2022/07/14 00:46:58;;;;;;;2.1;1.9;;;;;;;20.78;49.20508;95630.35;;;;
2022/07/14 00:47:58;;;;;;;2.1;1.9;;;;;;;20.78;49.20508;95630.35;;;;
2022/07/14 00:48:59;;;;;;;2.1;1.9;;;;;;;20.78;49.20508;95630.35;;;;
2022/07/14 00:49:59;;;;;;;2.1;1.9;;;;;;;20.78;49.20508;95630.35;;;;
2022/07/14 00:51:00;;;;;;;2.1;1.9;;;;;;;20.78;49.20508;95630.35;;;;
2022/07/14 00:52:01;;;;;;;2.1;1.9;;;;;;;20.78;49.20508;95630.35;;;;
2022/07/14 00:53:01;;;;;;;2;1.85;;;;;;;20.69;49.58301;95647.26;;;;
2022/07/14 00:54:06;;;;;;;2;1.85;;;;;;;20.69;49.58301;95647.26;;;;
2022/07/14 00:55:07;;;;;;;2;1.85;;;;;;;20.69;49.58301;95647.26;;;;
2022/07/14 00:56:09;;;;;;;2;1.85;;;;;;;20.69;49.58301;95647.26;;;;
2022/07/14 00:57:09;;;;;;;2;1.85;;;;;;;20.69;49.58301;95647.26;;;;
2022/07/14 00:58:10;;;;;;;2;1.85;;;;;;;20.69;49.58301;95647.26;;;;
2022/07/14 00:59:11;;;;;;;2;1.85;;;;;;;20.69;49.58301;95647.26;;;;
2022/07/14 01:00:12;;;;;;;2;1.85;;;;;;;20.69;49.58301;95647.26;;;;
2022/07/14 01:01:14;;;;;;;2;1.85;;;;;;;20.69;49.58301;95647.26;;;;
2022/07/14 01:02:15;;;;;;;2;1.85;;;;;;;20.69;49.58301;95647.26;;;;
2022/07/14 01:03:17;;;;;;;2.75;1.7;;;;;;;20.63;49.90918;95635.71;;;;
2022/07/14 01:04:17;;;;;;;2.75;1.7;;;;;;;20.63;49.90918;95635.71;;;;
2022/07/14 01:05:18;;;;;;;2.75;1.7;;;;;;;20.63;49.90918;95635.71;;;;
2022/07/14 01:06:19;;;;;;;2.75;1.7;;;;;;;20.63;49.90918;95635.71;;;;
2022/07/14 01:07:19;;;;;;;2.75;1.7;;;;;;;20.63;49.90918;95635.71;;;;
2022/07/14 01:08:20;;;;;;;2.75;1.7;;;;;;;20.63;49.90918;95635.71;;;;
2022/07/14 01:09:20;;;;;;;2.75;1.7;;;;;;;20.63;49.90918;95635.71;;;;
2022/07/14 01:10:21;;;;;;;2.75;1.7;;;;;;;20.63;49.90918;95635.71;;;;
2022/07/14 01:11:21;;;;;;;2.75;1.7;;;;;;;20.63;49.90918;95635.71;;;;
2022/07/14 01:12:22;;;;;;;2.75;1.7;;;;;;;20.63;49.90918;95635.71;;;;
2022/07/14 01:13:22;;;;;;;2.75;1.7;;;;;;;20.63;49.90918;95635.71;;;;
2022/07/14 01:14:23;;;;;;;3.35;2.1;;;;;;;20.49;50.28125;95637.83;;;;
2022/07/14 01:15:23;;;;;;;3.35;2.1;;;;;;;20.49;50.28125;95637.83;;;;
2022/07/14 01:16:24;;;;;;;3.35;2.1;;;;;;;20.49;50.28125;95637.83;;;;
2022/07/14 01:17:25;;;;;;;3.35;2.1;;;;;;;20.49;50.28125;95637.83;;;;
2022/07/14 01:18:25;;;;;;;3.35;2.1;;;;;;;20.49;50.28125;95637.83;;;;
2022/07/14 01:19:26;;;;;;;3.35;2.1;;;;;;;20.49;50.28125;95637.83;;;;
2022/07/14 01:20:26;;;;;;;3.35;2.1;;;;;;;20.49;50.28125;95637.83;;;;
2022/07/14 01:21:27;;;;;;;3.35;2.1;;;;;;;20.49;50.28125;95637.83;;;;
2022/07/14 01:22:27;;;;;;;3.35;2.1;;;;;;;20.49;50.28125;95637.83;;;;
2022/07/14 01:23:28;;;;;;;3.35;2.1;;;;;;;20.49;50.28125;95637.83;;;;
2022/07/14 01:24:29;;;;;;;3.35;2.1;;;;;;;20.49;50.28125;95637.83;;;;
2022/07/14 01:25:31;;;;;;;3.35;2.1;;;;;;;20.49;50.28125;95637.83;;;;
2022/07/14 01:26:31;;;;;;;3.35;2.1;;;;;;;20.49;50.28125;95637.83;;;;
2022/07/14 01:27:32;;;;;;;3.35;2.1;;;;;;;20.49;50.28125;95637.83;;;;
2022/07/14 01:28:32;;;;;;;3.35;2.1;;;;;;;20.49;50.28125;95637.83;;;;
2022/07/14 01:29:33;;;;;;;3.35;2.1;;;;;;;20.49;50.28125;95637.83;;;;
2022/07/14 01:30:33;;;;;;;3.35;2.1;;;;;;;20.49;50.28125;95637.83;;;;
2022/07/14 01:31:34;;;;;;;3.35;2.1;;;;;;;20.49;50.28125;95637.83;;;;
2022/07/14 01:32:34;;;;;;;3.35;2.1;;;;;;;20.49;50.28125;95637.83;;;;
2022/07/14 01:33:35;;;;;;;3.35;2.1;;;;;;;20.49;50.28125;95637.83;;;;
2022/07/14 01:34:36;;;;;;;3.35;2.1;;;;;;;20.49;50.28125;95637.83;;;;
2022/07/14 01:35:37;;;;;;;2;1.8;;;;;;;20.26;51.0752;95646.34;;;;
2022/07/14 01:36:38;;;;;;;2;1.8;;;;;;;20.26;51.0752;95646.34;;;;
2022/07/14 01:37:39;;;;;;;2;1.8;;;;;;;20.26;51.0752;95646.34;;;;
2022/07/14 01:38:39;;;;;;;2;1.8;;;;;;;20.26;51.0752;95646.34;;;;
2022/07/14 01:39:40;;;;;;;2;1.8;;;;;;;20.26;51.0752;95646.34;;;;
2022/07/14 01:40:40;;;;;;;2;1.8;;;;;;;20.26;51.0752;95646.34;;;;
2022/07/14 01:41:41;;;;;;;2;1.8;;;;;;;20.26;51.0752;95646.34;;;;
2022/07/14 01:42:41;;;;;;;2;1.8;;;;;;;20.26;51.0752;95646.34;;;;
2022/07/14 01:43:42;;;;;;;2;1.8;;;;;;;20.26;51.0752;95646.34;;;;
2022/07/14 01:44:42;;;;;;;2;1.8;;;;;;;20.26;51.0752;95646.34;;;;
2022/07/14 01:45:43;;;;;;;2.55;1.8;;;;;;;20.23;51.60449;95629.27;;;;
2022/07/14 01:46:43;;;;;;;2.55;1.8;;;;;;;20.23;51.60449;95629.27;;;;
2022/07/14 01:47:44;;;;;;;2.55;1.8;;;;;;;20.23;51.60449;95629.27;;;;
2022/07/14 01:48:44;;;;;;;2.55;1.8;;;;;;;20.23;51.60449;95629.27;;;;
2022/07/14 01:49:45;;;;;;;2.55;1.8;;;;;;;20.23;51.60449;95629.27;;;;
2022/07/14 01:50:46;;;;;;;2.55;1.8;;;;;;;20.23;51.60449;95629.27;;;;
2022/07/14 01:51:46;;;;;;;2.55;1.8;;;;;;;20.23;51.60449;95629.27;;;;
2022/07/14 01:52:47;;;;;;;2.55;1.8;;;;;;;20.23;51.60449;95629.27;;;;
2022/07/14 01:53:47;;;;;;;2.55;1.8;;;;;;;20.23;51.60449;95629.27;;;;
2022/07/14 01:54:48;;;;;;;2.55;1.8;;;;;;;20.23;51.60449;95629.27;;;;
2022/07/14 01:55:48;;;;;;;2.55;1.8;;;;;;;20.23;51.60449;95629.27;;;;
2022/07/14 01:56:49;;;;;;;2.1;1.9;;;;;;;20.14;52.19141;95617.44;;;;
2022/07/14 01:57:50;;;;;;;2.1;1.9;;;;;;;20.14;52.19141;95617.44;;;;
2022/07/14 01:58:51;;;;;;;2.1;1.9;;;;;;;20.14;52.19141;95617.44;;;;
2022/07/14 01:59:51;;;;;;;2.1;1.9;;;;;;;20.14;52.19141;95617.44;;;;
2022/07/14 02:01:39;;;;;;;2.1;1.9;;;;;;;20.14;52.19141;95617.44;;;;
2022/07/14 02:02:39;;;;;;;2.1;1.9;;;;;;;20.14;52.19141;95617.44;;;;
2022/07/14 02:03:40;;;;;;;2.1;1.9;;;;;;;20.14;52.19141;95617.44;;;;
2022/07/14 02:04:40;;;;;;;2.1;1.9;;;;;;;20.14;52.19141;95617.44;;;;
2022/07/14 02:05:40;;;;;;;2.1;1.9;;;;;;;20.14;52.19141;95617.44;;;;
2022/07/14 02:06:44;;;;;;;2.1;1.9;;;;;;;20.14;52.19141;95617.44;;;;
2022/07/14 02:07:48;;;;;;;2.3;2;;;;;;;20.05;52.62305;95602.07;;;;
2022/07/14 02:08:49;;;;;;;2.3;2;;;;;;;20.05;52.62305;95602.07;;;;
2022/07/14 02:15:00;;;;;;;2.3;2;;;;;;;20.05;52.62305;95602.07;;;;
2022/07/14 02:16:01;;;;;;;2.3;2;;;;;;;20.05;52.62305;95602.07;;;;
2022/07/14 02:17:02;;;;;;;2.3;2;;;;;;;20.05;52.62305;95602.07;;;;
2022/07/14 02:18:02;;;;;;;3.2;1.9;;;;;;;19.84;53.05176;95621.69;;;;
2022/07/14 02:19:03;;;;;;;3.2;1.9;;;;;;;19.84;53.05176;95621.69;;;;
2022/07/14 02:20:03;;;;;;;3.2;1.9;;;;;;;19.84;53.05176;95621.69;;;;
2022/07/14 02:21:05;;;;;;;3.2;1.9;;;;;;;19.84;53.05176;95621.69;;;;
2022/07/14 02:22:06;;;;;;;3.2;1.9;;;;;;;19.84;53.05176;95621.69;;;;
2022/07/14 02:23:06;;;;;;;3.2;1.9;;;;;;;19.84;53.05176;95621.69;;;;
2022/07/14 02:24:07;;;;;;;3.2;1.9;;;;;;;19.84;53.05176;95621.69;;;;
2022/07/14 02:25:09;;;;;;;3.2;1.9;;;;;;;19.84;53.05176;95621.69;;;;
2022/07/14 02:26:12;;;;;;;3.2;1.9;;;;;;;19.84;53.05176;95621.69;;;;
2022/07/14 02:27:13;;;;;;;3.2;1.9;;;;;;;19.84;53.05176;95621.69;;;;
2022/07/14 02:28:14;;;;;;;3.2;1.9;;;;;;;19.84;53.05176;95621.69;;;;
2022/07/14 02:29:14;;;;;;;2.4;2.2;;;;;;;19.65;53.72559;95632.73;;;;
2022/07/14 02:30:15;;;;;;;2.4;2.2;;;;;;;19.65;53.72559;95632.73;;;;
2022/07/14 02:31:15;;;;;;;2.4;2.2;;;;;;;19.65;53.72559;95632.73;;;;
2022/07/14 02:32:16;;;;;;;2.4;2.2;;;;;;;19.65;53.72559;95632.73;;;;
2022/07/14 02:33:16;;;;;;;2.4;2.2;;;;;;;19.65;53.72559;95632.73;;;;
2022/07/14 02:34:17;;;;;;;2.4;2.2;;;;;;;19.65;53.72559;95632.73;;;;
2022/07/14 02:35:18;;;;;;;2.4;2.2;;;;;;;19.65;53.72559;95632.73;;;;
2022/07/14 02:36:18;;;;;;;2.4;2.2;;;;;;;19.65;53.72559;95632.73;;;;
2022/07/14 02:37:19;;;;;;;2.4;2.2;;;;;;;19.65;53.72559;95632.73;;;;
2022/07/14 02:38:20;;;;;;;2.4;2.2;;;;;;;19.65;53.72559;95632.73;;;;
2022/07/14 02:39:21;;;;;;;2.4;2.2;;;;;;;19.65;53.72559;95632.73;;;;
2022/07/14 02:40:21;;;;;;;2.4;2.2;;;;;;;19.65;53.72559;95632.73;;;;
2022/07/14 02:41:22;;;;;;;2.4;2.2;;;;;;;19.65;53.72559;95632.73;;;;
2022/07/14 02:42:23;;;;;;;2.4;2.2;;;;;;;19.65;53.72559;95632.73;;;;
2022/07/14 02:43:26;;;;;;;2.4;2.2;;;;;;;19.65;53.72559;95632.73;;;;
2022/07/14 02:44:26;;;;;;;2.4;2.2;;;;;;;19.65;53.72559;95632.73;;;;
2022/07/14 02:45:27;;;;;;;2.4;2.2;;;;;;;19.65;53.72559;95632.73;;;;
2022/07/14 02:46:28;;;;;;;2.4;2.2;;;;;;;19.65;53.72559;95632.73;;;;
2022/07/14 02:47:28;;;;;;;2.4;2.2;;;;;;;19.65;53.72559;95632.73;;;;
2022/07/14 02:48:29;;;;;;;2.4;2.2;;;;;;;19.65;53.72559;95632.73;;;;
2022/07/14 02:49:29;;;;;;;2.4;2.2;;;;;;;19.65;53.72559;95632.73;;;;
2022/07/14 02:50:30;;;;;;;2.4;2.2;;;;;;;19.31;54.9873;95630.89;;;;
2022/07/14 02:51:31;;;;;;;2.4;2.2;;;;;;;19.31;54.9873;95630.89;;;;
2022/07/14 02:52:32;;;;;;;2.4;2.2;;;;;;;19.31;54.9873;95630.89;;;;
2022/07/14 02:53:34;;;;;;;2.4;2.2;;;;;;;19.31;54.9873;95630.89;;;;
2022/07/14 02:54:35;;;;;;;2.4;2.2;;;;;;;19.31;54.9873;95630.89;;;;
2022/07/14 02:55:36;;;;;;;2.4;2.2;;;;;;;19.31;54.9873;95630.89;;;;
2022/07/14 02:56:37;;;;;;;2.4;2.2;;;;;;;19.31;54.9873;95630.89;;;;
2022/07/14 02:57:37;;;;;;;2.4;2.2;;;;;;;19.31;54.9873;95630.89;;;;
2022/07/14 02:58:38;;;;;;;2.4;2.2;;;;;;;19.31;54.9873;95630.89;;;;
2022/07/14 02:59:38;;;;;;;2.4;2.2;;;;;;;19.31;54.9873;95630.89;;;;
2022/07/14 03:00:41;;;;;;;2.2;2;;;;;;;19.07;55.49902;95630.02;;;;
2022/07/14 03:01:41;;;;;;;2.2;2;;;;;;;19.07;55.49902;95630.02;;;;
2022/07/14 03:02:42;;;;;;;2.2;2;;;;;;;19.07;55.49902;95630.02;;;;
2022/07/14 03:03:43;;;;;;;2.2;2;;;;;;;19.07;55.49902;95630.02;;;;
2022/07/14 03:04:43;;;;;;;2.2;2;;;;;;;19.07;55.49902;95630.02;;;;
2022/07/14 03:05:43;;;;;;;2.2;2;;;;;;;19.07;55.49902;95630.02;;;;
2022/07/14 03:06:45;;;;;;;2.2;2;;;;;;;19.07;55.49902;95630.02;;;;
2022/07/14 03:07:45;;;;;;;2.2;2;;;;;;;19.07;55.49902;95630.02;;;;
2022/07/14 03:08:46;;;;;;;2.2;2;;;;;;;19.07;55.49902;95630.02;;;;
2022/07/14 03:09:47;;;;;;;2.2;2;;;;;;;19.07;55.49902;95630.02;;;;
2022/07/14 03:10:49;;;;;;;2.2;2;;;;;;;19.07;55.49902;95630.02;;;;
2022/07/14 03:11:49;;;;;;;2.1;1.9;;;;;;;18.87;55.93652;95625.43;;;;
2022/07/14 03:12:50;;;;;;;2.1;1.9;;;;;;;18.87;55.93652;95625.43;;;;
2022/07/14 03:13:50;;;;;;;2.1;1.9;;;;;;;18.87;55.93652;95625.43;;;;
2022/07/14 03:14:51;;;;;;;2.1;1.9;;;;;;;18.87;55.93652;95625.43;;;;
2022/07/14 03:15:51;;;;;;;2.1;1.9;;;;;;;18.87;55.93652;95625.43;;;;
2022/07/14 03:16:51;;;;;;;2.1;1.9;;;;;;;18.87;55.93652;95625.43;;;;
2022/07/14 03:17:52;;;;;;;2.1;1.9;;;;;;;18.87;55.93652;95625.43;;;;
2022/07/14 03:18:52;;;;;;;2.1;1.9;;;;;;;18.87;55.93652;95625.43;;;;
2022/07/14 03:19:53;;;;;;;2.1;1.9;;;;;;;18.87;55.93652;95625.43;;;;
2022/07/14 03:20:54;;;;;;;2.1;1.9;;;;;;;18.87;55.93652;95625.43;;;;
2022/07/14 03:21:54;;;;;;;3.150001;2.2;;;;;;;18.57;56.52637;95628.22;;;;
2022/07/14 03:22:55;;;;;;;3.150001;2.2;;;;;;;18.57;56.52637;95628.22;;;;
2022/07/14 03:23:56;;;;;;;3.150001;2.2;;;;;;;18.57;56.52637;95628.22;;;;
2022/07/14 03:24:57;;;;;;;3.150001;2.2;;;;;;;18.57;56.52637;95628.22;;;;
2022/07/14 03:25:57;;;;;;;3.150001;2.2;;;;;;;18.57;56.52637;95628.22;;;;
2022/07/14 03:26:58;;;;;;;3.150001;2.2;;;;;;;18.57;56.52637;95628.22;;;;
2022/07/14 03:27:58;;;;;;;3.150001;2.2;;;;;;;18.57;56.52637;95628.22;;;;
2022/07/14 03:28:59;;;;;;;3.150001;2.2;;;;;;;18.57;56.52637;95628.22;;;;
2022/07/14 03:29:59;;;;;;;3.150001;2.2;;;;;;;18.57;56.52637;95628.22;;;;
2022/07/14 03:31:00;;;;;;;3.150001;2.2;;;;;;;18.57;56.52637;95628.22;;;;
2022/07/14 03:32:00;;;;;;;3.150001;2.2;;;;;;;18.57;56.52637;95628.22;;;;
2022/07/14 03:33:01;;;;;;;2.15;1.9;;;;;;;18.5;57.20117;95639.64;;;;
2022/07/14 03:34:02;;;;;;;2.15;1.9;;;;;;;18.5;57.20117;95639.64;;;;
2022/07/14 03:35:03;;;;;;;2.15;1.9;;;;;;;18.5;57.20117;95639.64;;;;
2022/07/14 03:36:04;;;;;;;2.15;1.9;;;;;;;18.5;57.20117;95639.64;;;;
2022/07/14 03:37:05;;;;;;;2.15;1.9;;;;;;;18.5;57.20117;95639.64;;;;
2022/07/14 03:38:05;;;;;;;2.15;1.9;;;;;;;18.5;57.20117;95639.64;;;;
2022/07/14 03:39:07;;;;;;;2.15;1.9;;;;;;;18.5;57.20117;95639.64;;;;
2022/07/14 03:40:07;;;;;;;2.15;1.9;;;;;;;18.5;57.20117;95639.64;;;;
2022/07/14 03:41:09;;;;;;;2.15;1.9;;;;;;;18.5;57.20117;95639.64;;;;
2022/07/14 03:42:10;;;;;;;2.15;1.9;;;;;;;18.5;57.20117;95639.64;;;;
2022/07/14 03:43:11;;;;;;;2.3;2.1;;;;;;;18.55;57.26367;95631.15;;;;
2022/07/14 03:44:11;;;;;;;2.3;2.1;;;;;;;18.55;57.26367;95631.15;;;;
2022/07/14 03:45:12;;;;;;;2.3;2.1;;;;;;;18.55;57.26367;95631.15;;;;
2022/07/14 03:46:12;;;;;;;2.3;2.1;;;;;;;18.55;57.26367;95631.15;;;;
2022/07/14 03:47:13;;;;;;;2.3;2.1;;;;;;;18.55;57.26367;95631.15;;;;
2022/07/14 03:48:14;;;;;;;2.3;2.1;;;;;;;18.55;57.26367;95631.15;;;;
2022/07/14 03:49:14;;;;;;;2.3;2.1;;;;;;;18.55;57.26367;95631.15;;;;
2022/07/14 03:50:15;;;;;;;2.3;2.1;;;;;;;18.55;57.26367;95631.15;;;;
2022/07/14 03:51:15;;;;;;;2.3;2.1;;;;;;;18.55;57.26367;95631.15;;;;
2022/07/14 03:52:16;;;;;;;2.3;2.1;;;;;;;18.55;57.26367;95631.15;;;;
2022/07/14 03:53:16;;;;;;;2.3;2.1;;;;;;;18.55;57.26367;95631.15;;;;
2022/07/14 03:54:17;;;;;;;2.25;1.9;;;;;;;18.78;57.13672;95616.22;;;;
2022/07/14 03:55:18;;;;;;;2.25;1.9;;;;;;;18.78;57.13672;95616.22;;;;
2022/07/14 03:56:18;;;;;;;2.25;1.9;;;;;;;18.78;57.13672;95616.22;;;;
2022/07/14 03:57:19;;;;;;;2.25;1.9;;;;;;;18.78;57.13672;95616.22;;;;
2022/07/14 03:58:19;;;;;;;2.25;1.9;;;;;;;18.78;57.13672;95616.22;;;;
2022/07/14 03:59:20;;;;;;;2.25;1.9;;;;;;;18.78;57.13672;95616.22;;;;
2022/07/14 04:00:20;;;;;;;2.25;1.9;;;;;;;18.78;57.13672;95616.22;;;;
2022/07/14 04:01:21;;;;;;;2.25;1.9;;;;;;;18.78;57.13672;95616.22;;;;
2022/07/14 04:02:21;;;;;;;2.25;1.9;;;;;;;18.78;57.13672;95616.22;;;;
2022/07/14 04:03:22;;;;;;;2.25;1.9;;;;;;;18.78;57.13672;95616.22;;;;
2022/07/14 04:04:22;;;;;;;2.25;1.9;;;;;;;18.78;57.13672;95616.22;;;;
2022/07/14 04:05:23;;;;;;;2.4;1.9;;;;;;;18.98;57.09766;95614.51;;;;
2022/07/14 04:06:23;;;;;;;2.4;1.9;;;;;;;18.98;57.09766;95614.51;;;;
2022/07/14 04:07:24;;;;;;;2.4;1.9;;;;;;;18.98;57.09766;95614.51;;;;
2022/07/14 04:08:24;;;;;;;2.4;1.9;;;;;;;18.98;57.09766;95614.51;;;;
2022/07/14 04:09:25;;;;;;;2.4;1.9;;;;;;;18.98;57.09766;95614.51;;;;
2022/07/14 04:10:25;;;;;;;2.4;1.9;;;;;;;18.98;57.09766;95614.51;;;;
2022/07/14 04:11:26;;;;;;;2.4;1.9;;;;;;;18.98;57.09766;95614.51;;;;
2022/07/14 04:12:26;;;;;;;2.4;1.9;;;;;;;18.98;57.09766;95614.51;;;;
2022/07/14 04:13:29;;;;;;;2.4;1.9;;;;;;;18.98;57.09766;95614.51;;;;
2022/07/14 04:14:29;;;;;;;2.4;1.9;;;;;;;18.98;57.09766;95614.51;;;;
2022/07/14 04:15:30;;;;;;;2.2;2;;;;;;;19.32;56.83203;95637.47;;;;
2022/07/14 04:16:31;;;;;;;2.2;2;;;;;;;19.32;56.83203;95637.47;;;;
2022/07/14 04:17:31;;;;;;;2.2;2;;;;;;;19.32;56.83203;95637.47;;;;
2022/07/14 04:18:32;;;;;;;2.2;2;;;;;;;19.32;56.83203;95637.47;;;;
2022/07/14 04:19:33;;;;;;;2.2;2;;;;;;;19.32;56.83203;95637.47;;;;
2022/07/14 04:20:33;;;;;;;2.2;2;;;;;;;19.32;56.83203;95637.47;;;;
2022/07/14 04:21:34;;;;;;;2.2;2;;;;;;;19.32;56.83203;95637.47;;;;
2022/07/14 04:22:35;;;;;;;2.2;2;;;;;;;19.32;56.83203;95637.47;;;;
2022/07/14 04:23:35;;;;;;;2.2;2;;;;;;;19.32;56.83203;95637.47;;;;
2022/07/14 04:24:36;;;;;;;2.2;2;;;;;;;19.32;56.83203;95637.47;;;;
2022/07/14 04:25:37;;;;;;;2.2;2;;;;;;;19.32;56.83203;95637.47;;;;
2022/07/14 04:26:40;;;;;;;2.05;1.9;;;;;;;19.57;56.5;95640.31;;;;
2022/07/14 04:27:40;;;;;;;2.05;1.9;;;;;;;19.57;56.5;95640.31;;;;
2022/07/14 04:28:41;;;;;;;2.05;1.9;;;;;;;19.57;56.5;95640.31;;;;
2022/07/14 04:29:42;;;;;;;2.05;1.9;;;;;;;19.57;56.5;95640.31;;;;
2022/07/14 04:30:42;;;;;;;2.05;1.9;;;;;;;19.57;56.5;95640.31;;;;
2022/07/14 04:31:43;;;;;;;2.05;1.9;;;;;;;19.57;56.5;95640.31;;;;
2022/07/14 04:32:44;;;;;;;2.05;1.9;;;;;;;19.57;56.5;95640.31;;;;
2022/07/14 04:33:44;;;;;;;2.05;1.9;;;;;;;19.57;56.5;95640.31;;;;
2022/07/14 04:34:45;;;;;;;2.05;1.9;;;;;;;19.57;56.5;95640.31;;;;
2022/07/14 04:35:45;;;;;;;2.05;1.9;;;;;;;19.57;56.5;95640.31;;;;
2022/07/14 04:36:46;;;;;;;3.55;1.95;;;;;;;20.12;55.92773;95637.51;;;;
2022/07/14 04:37:46;;;;;;;3.55;1.95;;;;;;;20.12;55.92773;95637.51;;;;
2022/07/14 04:38:47;;;;;;;3.55;1.95;;;;;;;20.12;55.92773;95637.51;;;;
2022/07/14 04:39:47;;;;;;;3.55;1.95;;;;;;;20.12;55.92773;95637.51;;;;
2022/07/14 04:40:48;;;;;;;3.55;1.95;;;;;;;20.12;55.92773;95637.51;;;;
2022/07/14 04:41:50;;;;;;;3.55;1.95;;;;;;;20.12;55.92773;95637.51;;;;
2022/07/14 04:42:50;;;;;;;3.55;1.95;;;;;;;20.12;55.92773;95637.51;;;;
2022/07/14 04:43:50;;;;;;;3.55;1.95;;;;;;;20.12;55.92773;95637.51;;;;
2022/07/14 04:44:51;;;;;;;3.55;1.95;;;;;;;20.12;55.92773;95637.51;;;;
2022/07/14 04:45:52;;;;;;;3.55;1.95;;;;;;;20.12;55.92773;95637.51;;;;
2022/07/14 04:46:52;;;;;;;3.55;1.95;;;;;;;20.12;55.92773;95637.51;;;;
2022/07/14 04:47:52;;;;;;;2.3;2.1;;;;;;;20.67;55.18848;95640.4;;;;
2022/07/14 04:53:54;;;;;;;2.3;2.1;;;;;;;20.67;55.18848;95640.4;;;;
2022/07/14 04:54:55;;;;;;;2.3;2.1;;;;;;;20.67;55.18848;95640.4;;;;
2022/07/14 04:55:56;;;;;;;2.3;2.1;;;;;;;20.67;55.18848;95640.4;;;;
2022/07/14 04:56:56;;;;;;;2.3;2.1;;;;;;;20.67;55.18848;95640.4;;;;
2022/07/14 04:57:57;;;;;;;2.3;1.95;;;;;;;21.06;54.89355;95629.88;;;;
2022/07/14 04:58:58;;;;;;;2.3;1.95;;;;;;;21.06;54.89355;95629.88;;;;
2022/07/14 04:59:59;;;;;;;2.3;1.95;;;;;;;21.06;54.89355;95629.88;;;;
2022/07/14 05:00:59;;;;;;;2.3;1.95;;;;;;;21.06;54.89355;95629.88;;;;
2022/07/14 05:02:00;;;;;;;2.3;1.95;;;;;;;21.06;54.89355;95629.88;;;;
2022/07/14 05:03:01;;;;;;;2.3;1.95;;;;;;;21.06;54.89355;95629.88;;;;
2022/07/14 05:04:01;;;;;;;2.3;1.95;;;;;;;21.06;54.89355;95629.88;;;;
2022/07/14 05:05:02;;;;;;;2.3;1.95;;;;;;;21.06;54.89355;95629.88;;;;
2022/07/14 05:06:04;;;;;;;2.3;1.95;;;;;;;21.06;54.89355;95629.88;;;;
2022/07/14 05:07:04;;;;;;;2.3;1.95;;;;;;;21.06;54.89355;95629.88;;;;
2022/07/14 05:08:05;;;;;;;2.3;1.95;;;;;;;21.06;54.89355;95629.88;;;;
2022/07/14 05:09:05;;;;;;;3.75;2.2;;;;;;;21.37;54.64258;95631.23;;;;
2022/07/14 05:10:06;;;;;;;3.75;2.2;;;;;;;21.37;54.64258;95631.23;;;;
2022/07/14 05:11:07;;;;;;;3.75;2.2;;;;;;;21.37;54.64258;95631.23;;;;
2022/07/14 05:12:09;;;;;;;3.75;2.2;;;;;;;21.37;54.64258;95631.23;;;;
2022/07/14 05:13:10;;;;;;;3.75;2.2;;;;;;;21.37;54.64258;95631.23;;;;
2022/07/14 05:14:10;;;;;;;3.75;2.2;;;;;;;21.37;54.64258;95631.23;;;;
2022/07/14 05:15:11;;;;;;;3.75;2.2;;;;;;;21.37;54.64258;95631.23;;;;
2022/07/14 05:16:11;;;;;;;3.75;2.2;;;;;;;21.37;54.64258;95631.23;;;;
2022/07/14 05:17:13;;;;;;;3.75;2.2;;;;;;;21.37;54.64258;95631.23;;;;
2022/07/14 05:18:13;;;;;;;3.75;2.2;;;;;;;21.37;54.64258;95631.23;;;;
2022/07/14 05:19:14;;;;;;;3.55;2.1;;;;;;;21.61;54.2959;95644.23;;;;
2022/07/14 05:20:15;;;;;;;3.55;2.1;;;;;;;21.61;54.2959;95644.23;;;;
2022/07/14 05:21:15;;;;;;;3.55;2.1;;;;;;;21.61;54.2959;95644.23;;;;
2022/07/14 05:22:16;;;;;;;3.55;2.1;;;;;;;21.61;54.2959;95644.23;;;;
2022/07/14 05:23:17;;;;;;;3.55;2.1;;;;;;;21.61;54.2959;95644.23;;;;
2022/07/14 05:24:17;;;;;;;3.55;2.1;;;;;;;21.61;54.2959;95644.23;;;;
2022/07/14 05:25:18;;;;;;;3.55;2.1;;;;;;;21.61;54.2959;95644.23;;;;
2022/07/14 05:26:19;;;;;;;3.55;2.1;;;;;;;21.61;54.2959;95644.23;;;;
2022/07/14 05:27:19;;;;;;;3.55;2.1;;;;;;;21.61;54.2959;95644.23;;;;
2022/07/14 05:28:20;;;;;;;3.55;2.1;;;;;;;21.61;54.2959;95644.23;;;;
2022/07/14 05:29:20;;;;;;;3.55;2.1;;;;;;;21.61;54.2959;95644.23;;;;
2022/07/14 05:30:21;;;;;;;3.55;2.1;;;;;;;21.61;54.2959;95644.23;;;;
2022/07/14 05:31:21;;;;;;;3.55;2.1;;;;;;;21.61;54.2959;95644.23;;;;
2022/07/14 05:32:22;;;;;;;3.55;2.1;;;;;;;21.61;54.2959;95644.23;;;;
2022/07/14 05:33:22;;;;;;;3.55;2.1;;;;;;;21.61;54.2959;95644.23;;;;
2022/07/14 05:34:23;;;;;;;3.55;2.1;;;;;;;21.61;54.2959;95644.23;;;;
2022/07/14 05:35:23;;;;;;;3.55;2.1;;;;;;;21.61;54.2959;95644.23;;;;
2022/07/14 05:36:24;;;;;;;3.55;2.1;;;;;;;21.61;54.2959;95644.23;;;;
2022/07/14 05:37:25;;;;;;;3.55;2.1;;;;;;;21.61;54.2959;95644.23;;;;
2022/07/14 05:38:25;;;;;;;3.55;2.1;;;;;;;21.61;54.2959;95644.23;;;;
2022/07/14 05:39:26;;;;;;;3.55;2.1;;;;;;;21.61;54.2959;95644.23;;;;
2022/07/14 05:40:27;;;;;;;3.05;2.15;;;;;;;21.63;54.37598;95663.2;;;;
2022/07/14 05:41:27;;;;;;;3.05;2.15;;;;;;;21.63;54.37598;95663.2;;;;
2022/07/14 05:42:28;;;;;;;3.05;2.15;;;;;;;21.63;54.37598;95663.2;;;;
2022/07/14 05:43:28;;;;;;;3.05;2.15;;;;;;;21.63;54.37598;95663.2;;;;
2022/07/14 05:44:29;;;;;;;3.05;2.15;;;;;;;21.63;54.37598;95663.2;;;;
2022/07/14 05:45:29;;;;;;;3.05;2.15;;;;;;;21.63;54.37598;95663.2;;;;
2022/07/14 05:46:30;;;;;;;3.05;2.15;;;;;;;21.63;54.37598;95663.2;;;;
2022/07/14 05:47:31;;;;;;;3.05;2.15;;;;;;;21.63;54.37598;95663.2;;;;
2022/07/14 05:48:31;;;;;;;3.05;2.15;;;;;;;21.63;54.37598;95663.2;;;;
2022/07/14 05:49:32;;;;;;;3.05;2.15;;;;;;;21.63;54.37598;95663.2;;;;
2022/07/14 05:50:33;;;;;;;3.05;2.15;;;;;;;21.63;54.37598;95663.2;;;;
2022/07/14 05:51:33;;;;;;;2.25;2.05;;;;;;;22.19;53.50977;95644.5;;;;
2022/07/14 05:52:33;;;;;;;2.25;2.05;;;;;;;22.19;53.50977;95644.5;;;;
2022/07/14 05:53:35;;;;;;;2.25;2.05;;;;;;;22.19;53.50977;95644.5;;;;
2022/07/14 05:54:36;;;;;;;2.25;2.05;;;;;;;22.19;53.50977;95644.5;;;;
2022/07/14 05:55:36;;;;;;;2.25;2.05;;;;;;;22.19;53.50977;95644.5;;;;
2022/07/14 05:56:37;;;;;;;2.25;2.05;;;;;;;22.19;53.50977;95644.5;;;;
2022/07/14 05:57:37;;;;;;;2.25;2.05;;;;;;;22.19;53.50977;95644.5;;;;
2022/07/14 05:58:38;;;;;;;2.25;2.05;;;;;;;22.19;53.50977;95644.5;;;;
2022/07/14 05:59:39;;;;;;;2.25;2.05;;;;;;;22.19;53.50977;95644.5;;;;
2022/07/14 06:00:40;;;;;;;2.25;2.05;;;;;;;22.19;53.50977;95644.5;;;;
2022/07/14 06:01:40;;;;;;;2.25;2.05;;;;;;;22.19;53.50977;95644.5;;;;
2022/07/14 06:02:41;;;;;;;2.6;2;;;;;;;22.65;52.81836;95638.95;;;;
2022/07/14 06:03:42;;;;;;;2.6;2;;;;;;;22.65;52.81836;95638.95;;;;